Anchorage/Lake Hood Seaplane Base, Alaska
Current Conditions -  °F | °C
As of 11:53 PM on Saturday 20 Dec 2014 (Local Time) from PALH Reporting Station
Overcast Overcast  
Wind Chill: -4°   Ceiling: 4600
Heat Index: -4°   Visibility: 10mi
Dew Point: -7°   Wind: 0mph
Humidity: 81%   Direction: NA
Pressure: 28.96"   Gusts: NA
Location:  61.18°N, 149.97°W
Report Text: PALH 210853Z 00000KT 10SM OVC046 M04/M07 A2896 RMK AO2 SLP809 T10391067 410331083 51020
Loading
Personal Weather Stations






























Interactive Weather Map New forecast layout! Learn more

10-Day Weather Forecast

Advertisements
Track Severe Weather on mobile